sensor_id;sensor_type;location;lat;lon;timestamp;temperature;humidity
76040;SHT30;64736;50.462;4.850;2023-02-12T00:02:09;7.96;87.09
76040;SHT30;64736;50.462;4.850;2023-02-12T00:04:34;8.07;87.01
76040;SHT30;64736;50.462;4.850;2023-02-12T00:07:00;7.89;86.85
76040;SHT30;64736;50.462;4.850;2023-02-12T00:09:26;8.25;86.70
76040;SHT30;64736;50.462;4.850;2023-02-12T00:11:52;8.12;86.32
76040;SHT30;64736;50.462;4.850;2023-02-12T00:14:17;8.13;86.12
76040;SHT30;64736;50.462;4.850;2023-02-12T00:16:43;7.81;86.75
76040;SHT30;64736;50.462;4.850;2023-02-12T00:19:09;7.96;87.16
76040;SHT30;64736;50.462;4.850;2023-02-12T00:21:34;8.10;86.51
76040;SHT30;64736;50.462;4.850;2023-02-12T00:24:01;7.93;86.49
76040;SHT30;64736;50.462;4.850;2023-02-12T00:26:27;7.84;87.04
76040;SHT30;64736;50.462;4.850;2023-02-12T00:28:53;8.05;86.86
76040;SHT30;64736;50.462;4.850;2023-02-12T00:31:22;8.06;86.45
76040;SHT30;64736;50.462;4.850;2023-02-12T00:33:48;7.71;86.83
76040;SHT30;64736;50.462;4.850;2023-02-12T00:36:20;7.60;87.84
76040;SHT30;64736;50.462;4.850;2023-02-12T00:38:46;7.74;88.23
76040;SHT30;64736;50.462;4.850;2023-02-12T00:41:12;7.77;88.08
76040;SHT30;64736;50.462;4.850;2023-02-12T00:43:38;8.05;87.01
76040;SHT30;64736;50.462;4.850;2023-02-12T00:46:04;8.10;86.01
76040;SHT30;64736;50.462;4.850;2023-02-12T00:48:32;8.16;86.07
76040;SHT30;64736;50.462;4.850;2023-02-12T00:50:58;8.07;86.23
76040;SHT30;64736;50.462;4.850;2023-02-12T00:53:24;8.16;86.24
76040;SHT30;64736;50.462;4.850;2023-02-12T00:55:50;8.23;85.86
76040;SHT30;64736;50.462;4.850;2023-02-12T00:58:15;8.13;85.76
76040;SHT30;64736;50.462;4.850;2023-02-12T01:00:42;8.17;86.43
76040;SHT30;64736;50.462;4.850;2023-02-12T01:03:08;7.92;87.02
76040;SHT30;64736;50.462;4.850;2023-02-12T01:05:34;8.07;87.19
76040;SHT30;64736;50.462;4.850;2023-02-12T01:07:59;8.05;86.92
76040;SHT30;64736;50.462;4.850;2023-02-12T01:10:26;7.81;87.14
76040;SHT30;64736;50.462;4.850;2023-02-12T01:12:52;7.91;87.47
76040;SHT30;64736;50.462;4.850;2023-02-12T01:15:18;8.06;87.00
76040;SHT30;64736;50.462;4.850;2023-02-12T01:17:43;8.13;86.65
76040;SHT30;64736;50.462;4.850;2023-02-12T01:20:12;8.22;85.71
76040;SHT30;64736;50.462;4.850;2023-02-12T01:22:38;7.93;85.81
76040;SHT30;64736;50.462;4.850;2023-02-12T01:25:05;7.63;87.17
76040;SHT30;64736;50.462;4.850;2023-02-12T01:27:32;7.54;87.96
76040;SHT30;64736;50.462;4.850;2023-02-12T01:29:57;7.55;88.42
76040;SHT30;64736;50.462;4.850;2023-02-12T01:32:23;7.36;88.87
76040;SHT30;64736;50.462;4.850;2023-02-12T01:34:49;7.46;89.14
76040;SHT30;64736;50.462;4.850;2023-02-12T01:37:15;7.79;89.08
76040;SHT30;64736;50.462;4.850;2023-02-12T01:39:41;8.06;87.75
76040;SHT30;64736;50.462;4.850;2023-02-12T01:42:11;8.19;86.64
76040;SHT30;64736;50.462;4.850;2023-02-12T01:47:38;7.96;86.83
76040;SHT30;64736;50.462;4.850;2023-02-12T01:50:12;7.46;87.83
76040;SHT30;64736;50.462;4.850;2023-02-12T01:52:45;7.20;90.03
76040;SHT30;64736;50.462;4.850;2023-02-12T01:55:13;7.07;90.80
76040;SHT30;64736;50.462;4.850;2023-02-12T01:57:42;7.10;91.17
76040;SHT30;64736;50.462;4.850;2023-02-12T02:00:15;7.23;91.21
76040;SHT30;64736;50.462;4.850;2023-02-12T02:02:44;7.09;91.09
76040;SHT30;64736;50.462;4.850;2023-02-12T02:05:12;7.07;91.34
76040;SHT30;64736;50.462;4.850;2023-02-12T02:07:39;7.22;91.46
76040;SHT30;64736;50.462;4.850;2023-02-12T02:10:07;7.28;91.37
76040;SHT30;64736;50.462;4.850;2023-02-12T02:12:33;7.17;91.13
76040;SHT30;64736;50.462;4.850;2023-02-12T02:15:18;7.16;91.07
76040;SHT30;64736;50.462;4.850;2023-02-12T02:17:55;7.06;91.22
76040;SHT30;64736;50.462;4.850;2023-02-12T02:21:09;7.16;91.35
76040;SHT30;64736;50.462;4.850;2023-02-12T02:27:09;7.22;91.24
76040;SHT30;64736;50.462;4.850;2023-02-12T02:32:26;7.58;90.18
76040;SHT30;64736;50.462;4.850;2023-02-12T02:40:49;7.48;88.96
76040;SHT30;64736;50.462;4.850;2023-02-12T02:43:33;7.46;88.88
76040;SHT30;64736;50.462;4.850;2023-02-12T02:46:10;7.50;88.69
76040;SHT30;64736;50.462;4.850;2023-02-12T02:48:44;7.50;88.66
76040;SHT30;64736;50.462;4.850;2023-02-12T02:51:17;7.50;88.65
76040;SHT30;64736;50.462;4.850;2023-02-12T02:54:25;7.43;88.56
76040;SHT30;64736;50.462;4.850;2023-02-12T02:57:02;7.43;88.61
76040;SHT30;64736;50.462;4.850;2023-02-12T02:59:35;7.20;89.12
76040;SHT30;64736;50.462;4.850;2023-02-12T03:02:32;7.31;89.26
76040;SHT30;64736;50.462;4.850;2023-02-12T03:05:12;7.36;89.02
76040;SHT30;64736;50.462;4.850;2023-02-12T03:07:56;7.23;88.96
76040;SHT30;64736;50.462;4.850;2023-02-12T03:10:30;7.28;89.15
76040;SHT30;64736;50.462;4.850;2023-02-12T03:13:10;7.26;89.33
76040;SHT30;64736;50.462;4.850;2023-02-12T03:15:57;7.36;89.10
76040;SHT30;64736;50.462;4.850;2023-02-12T03:18:35;7.48;88.91
76040;SHT30;64736;50.462;4.850;2023-02-12T03:21:08;7.42;88.59
76040;SHT30;64736;50.462;4.850;2023-02-12T03:24:02;7.50;88.34
76040;SHT30;64736;50.462;4.850;2023-02-12T03:26:51;7.60;88.01
76040;SHT30;64736;50.462;4.850;2023-02-12T03:29:19;7.54;87.82
76040;SHT30;64736;50.462;4.850;2023-02-12T03:32:17;7.51;87.93
76040;SHT30;64736;50.462;4.850;2023-02-12T03:35:08;7.46;87.80
76040;SHT30;64736;50.462;4.850;2023-02-12T03:37:42;7.38;88.03
76040;SHT30;64736;50.462;4.850;2023-02-12T03:40:45;7.33;88.27
76040;SHT30;64736;50.462;4.850;2023-02-12T03:45:59;7.65;88.36
76040;SHT30;64736;50.462;4.850;2023-02-12T03:51:34;7.81;86.80
76040;SHT30;64736;50.462;4.850;2023-02-12T03:54:02;7.78;86.42
76040;SHT30;64736;50.462;4.850;2023-02-12T03:59:04;7.55;86.84
76040;SHT30;64736;50.462;4.850;2023-02-12T04:01:31;7.43;87.30
76040;SHT30;64736;50.462;4.850;2023-02-12T04:03:58;7.36;87.73
76040;SHT30;64736;50.462;4.850;2023-02-12T04:06:32;7.74;87.46
76040;SHT30;64736;50.462;4.850;2023-02-12T04:09:02;7.78;86.32
76040;SHT30;64736;50.462;4.850;2023-02-12T04:11:54;7.72;86.30
76040;SHT30;64736;50.462;4.850;2023-02-12T04:23:02;7.31;87.74
76040;SHT30;64736;50.462;4.850;2023-02-12T04:36:33;7.02;88.90
76040;SHT30;64736;50.462;4.850;2023-02-12T04:39:05;6.76;89.70
76040;SHT30;64736;50.462;4.850;2023-02-12T04:41:36;6.85;90.11
76040;SHT30;64736;50.462;4.850;2023-02-12T04:44:22;7.19;90.14
76040;SHT30;64736;50.462;4.850;2023-02-12T04:46:49;7.48;88.69
76040;SHT30;64736;50.462;4.850;2023-02-12T04:49:17;7.54;87.35
76040;SHT30;64736;50.462;4.850;2023-02-12T04:51:44;7.60;86.74
76040;SHT30;64736;50.462;4.850;2023-02-12T04:54:11;7.47;86.84
76040;SHT30;64736;50.462;4.850;2023-02-12T04:56:37;7.26;87.35
76040;SHT30;64736;50.462;4.850;2023-02-12T04:59:03;7.05;88.09
76040;SHT30;64736;50.462;4.850;2023-02-12T05:01:29;7.10;88.59
76040;SHT30;64736;50.462;4.850;2023-02-12T05:03:57;6.92;89.02
76040;SHT30;64736;50.462;4.850;2023-02-12T05:06:23;7.17;89.47
76040;SHT30;64736;50.462;4.850;2023-02-12T05:08:51;7.10;88.97
76040;SHT30;64736;50.462;4.850;2023-02-12T05:11:17;7.27;88.76
76040;SHT30;64736;50.462;4.850;2023-02-12T05:13:42;7.31;88.45
76040;SHT30;64736;50.462;4.850;2023-02-12T05:16:08;7.28;88.14
76040;SHT30;64736;50.462;4.850;2023-02-12T05:18:34;7.34;87.86
76040;SHT30;64736;50.462;4.850;2023-02-12T05:21:02;7.33;87.68
76040;SHT30;64736;50.462;4.850;2023-02-12T05:23:29;7.51;87.37
76040;SHT30;64736;50.462;4.850;2023-02-12T05:26:00;7.31;87.25
76040;SHT30;64736;50.462;4.850;2023-02-12T05:28:27;7.26;87.60
76040;SHT30;64736;50.462;4.850;2023-02-12T05:30:53;7.30;87.65
76040;SHT30;64736;50.462;4.850;2023-02-12T05:33:18;7.23;87.59
76040;SHT30;64736;50.462;4.850;2023-02-12T05:35:44;7.34;87.71
76040;SHT30;64736;50.462;4.850;2023-02-12T05:38:10;7.30;87.63
76040;SHT30;64736;50.462;4.850;2023-02-12T05:40:35;7.36;87.26
76040;SHT30;64736;50.462;4.850;2023-02-12T05:43:01;7.50;86.84
76040;SHT30;64736;50.462;4.850;2023-02-12T05:45:28;7.43;86.39
76040;SHT30;64736;50.462;4.850;2023-02-12T05:47:55;7.30;87.19
76040;SHT30;64736;50.462;4.850;2023-02-12T05:50:21;7.50;86.77
76040;SHT30;64736;50.462;4.850;2023-02-12T05:52:46;7.40;86.67
76040;SHT30;64736;50.462;4.850;2023-02-12T05:55:12;7.27;86.92
76040;SHT30;64736;50.462;4.850;2023-02-12T05:57:38;7.26;87.28
76040;SHT30;64736;50.462;4.850;2023-02-12T06:00:05;7.46;87.42
76040;SHT30;64736;50.462;4.850;2023-02-12T06:02:33;7.60;86.09
76040;SHT30;64736;50.462;4.850;2023-02-12T06:04:59;7.34;86.37
76040;SHT30;64736;50.462;4.850;2023-02-12T06:07:25;7.33;87.07
76040;SHT30;64736;50.462;4.850;2023-02-12T06:09:51;7.17;87.35
76040;SHT30;64736;50.462;4.850;2023-02-12T06:12:17;7.19;87.39
76040;SHT30;64736;50.462;4.850;2023-02-12T06:14:43;7.31;87.67
76040;SHT30;64736;50.462;4.850;2023-02-12T06:17:08;7.44;87.30
76040;SHT30;64736;50.462;4.850;2023-02-12T06:19:35;7.19;87.24
76040;SHT30;64736;50.462;4.850;2023-02-12T06:22:01;7.03;87.80
76040;SHT30;64736;50.462;4.850;2023-02-12T06:24:26;7.31;88.16
76040;SHT30;64736;50.462;4.850;2023-02-12T06:26:52;7.03;87.66
76040;SHT30;64736;50.462;4.850;2023-02-12T06:29:19;6.74;89.00
76040;SHT30;64736;50.462;4.850;2023-02-12T06:31:45;6.96;89.36
76040;SHT30;64736;50.462;4.850;2023-02-12T06:34:12;6.95;89.23
76040;SHT30;64736;50.462;4.850;2023-02-12T06:36:41;6.99;89.12
76040;SHT30;64736;50.462;4.850;2023-02-12T06:39:09;7.42;88.21
76040;SHT30;64736;50.462;4.850;2023-02-12T06:41:35;7.57;86.28
76040;SHT30;64736;50.462;4.850;2023-02-12T06:44:01;6.96;87.76
76040;SHT30;64736;50.462;4.850;2023-02-12T06:46:27;6.89;88.88
76040;SHT30;64736;50.462;4.850;2023-02-12T06:48:55;7.20;89.06
76040;SHT30;64736;50.462;4.850;2023-02-12T06:51:21;7.15;88.57
76040;SHT30;64736;50.462;4.850;2023-02-12T06:53:49;6.71;89.16
76040;SHT30;64736;50.462;4.850;2023-02-12T06:56:16;6.68;90.49
76040;SHT30;64736;50.462;4.850;2023-02-12T06:58:45;7.28;90.08
76040;SHT30;64736;50.462;4.850;2023-02-12T07:01:16;6.91;88.44
76040;SHT30;64736;50.462;4.850;2023-02-12T07:03:50;6.51;90.25
76040;SHT30;64736;50.462;4.850;2023-02-12T07:06:16;6.65;91.01
76040;SHT30;64736;50.462;4.850;2023-02-12T07:08:42;6.58;91.01
76040;SHT30;64736;50.462;4.850;2023-02-12T07:11:08;7.09;90.44
76040;SHT30;64736;50.462;4.850;2023-02-12T07:13:34;6.92;89.58
76040;SHT30;64736;50.462;4.850;2023-02-12T07:16:08;7.12;89.03
76040;SHT30;64736;50.462;4.850;2023-02-12T07:18:35;7.33;88.34
76040;SHT30;64736;50.462;4.850;2023-02-12T07:21:02;7.43;87.51
76040;SHT30;64736;50.462;4.850;2023-02-12T07:23:28;7.33;86.90
76040;SHT30;64736;50.462;4.850;2023-02-12T07:26:05;7.23;87.34
76040;SHT30;64736;50.462;4.850;2023-02-12T07:28:32;7.15;87.87
76040;SHT30;64736;50.462;4.850;2023-02-12T07:31:06;7.44;87.58
76040;SHT30;64736;50.462;4.850;2023-02-12T07:33:33;7.55;86.23
76040;SHT30;64736;50.462;4.850;2023-02-12T07:36:00;7.31;86.72
76040;SHT30;64736;50.462;4.850;2023-02-12T07:38:26;7.31;87.20
76040;SHT30;64736;50.462;4.850;2023-02-12T07:40:52;7.16;87.56
76040;SHT30;64736;50.462;4.850;2023-02-12T07:43:18;6.97;88.15
76040;SHT30;64736;50.462;4.850;2023-02-12T07:45:43;7.26;88.53
76040;SHT30;64736;50.462;4.850;2023-02-12T07:48:09;7.38;87.73
76040;SHT30;64736;50.462;4.850;2023-02-12T07:50:35;7.43;87.44
76040;SHT30;64736;50.462;4.850;2023-02-12T07:53:00;7.27;87.34
76040;SHT30;64736;50.462;4.850;2023-02-12T07:55:26;6.71;88.87
76040;SHT30;64736;50.462;4.850;2023-02-12T07:57:52;6.64;89.92
76040;SHT30;64736;50.462;4.850;2023-02-12T08:00:18;6.59;90.66
76040;SHT30;64736;50.462;4.850;2023-02-12T08:02:51;6.61;90.78
76040;SHT30;64736;50.462;4.850;2023-02-12T08:05:17;7.06;90.68
76040;SHT30;64736;50.462;4.850;2023-02-12T08:07:43;7.12;89.26
76040;SHT30;64736;50.462;4.850;2023-02-12T08:10:09;7.10;88.88
76040;SHT30;64736;50.462;4.850;2023-02-12T08:12:34;6.81;89.37
76040;SHT30;64736;50.462;4.850;2023-02-12T08:15:00;6.74;89.84
76040;SHT30;64736;50.462;4.850;2023-02-12T08:17:26;6.81;89.69
76040;SHT30;64736;50.462;4.850;2023-02-12T08:19:52;7.20;89.36
76040;SHT30;64736;50.462;4.850;2023-02-12T08:22:18;7.43;88.17
76040;SHT30;64736;50.462;4.850;2023-02-12T08:24:43;7.19;87.70
76040;SHT30;64736;50.462;4.850;2023-02-12T08:27:09;6.93;88.00
76040;SHT30;64736;50.462;4.850;2023-02-12T08:29:35;6.75;88.76
76040;SHT30;64736;50.462;4.850;2023-02-12T08:32:02;6.75;89.56
76040;SHT30;64736;50.462;4.850;2023-02-12T08:34:30;6.72;90.17
76040;SHT30;64736;50.462;4.850;2023-02-12T08:36:57;7.36;89.68
76040;SHT30;64736;50.462;4.850;2023-02-12T08:39:24;6.95;88.62
76040;SHT30;64736;50.462;4.850;2023-02-12T08:41:53;6.75;88.72
76040;SHT30;64736;50.462;4.850;2023-02-12T08:44:19;6.74;88.73
76040;SHT30;64736;50.462;4.850;2023-02-12T08:46:48;7.02;88.43
76040;SHT30;64736;50.462;4.850;2023-02-12T08:49:21;7.67;85.44
76040;SHT30;64736;50.462;4.850;2023-02-12T08:51:49;7.74;84.41
76040;SHT30;64736;50.462;4.850;2023-02-12T08:54:18;7.84;84.44
76040;SHT30;64736;50.462;4.850;2023-02-12T08:56:45;7.53;84.13
76040;SHT30;64736;50.462;4.850;2023-02-12T08:59:11;8.03;83.27
76040;SHT30;64736;50.462;4.850;2023-02-12T09:01:38;8.01;82.83
76040;SHT30;64736;50.462;4.850;2023-02-12T09:04:07;7.93;82.85
76040;SHT30;64736;50.462;4.850;2023-02-12T09:06:34;7.84;83.41
76040;SHT30;64736;50.462;4.850;2023-02-12T09:09:01;8.06;82.40
76040;SHT30;64736;50.462;4.850;2023-02-12T09:11:28;7.74;83.25
76040;SHT30;64736;50.462;4.850;2023-02-12T09:14:01;7.42;84.23
76040;SHT30;64736;50.462;4.850;2023-02-12T09:16:28;7.23;84.65
76040;SHT30;64736;50.462;4.850;2023-02-12T09:18:54;7.17;84.11
76040;SHT30;64736;50.462;4.850;2023-02-12T09:21:20;7.31;84.14
76040;SHT30;64736;50.462;4.850;2023-02-12T09:23:46;7.47;83.38
76040;SHT30;64736;50.462;4.850;2023-02-12T09:26:14;7.61;82.64
76040;SHT30;64736;50.462;4.850;2023-02-12T09:28:41;7.36;83.72
76040;SHT30;64736;50.462;4.850;2023-02-12T09:31:11;7.40;84.29
76040;SHT30;64736;50.462;4.850;2023-02-12T09:33:38;7.55;83.77
76040;SHT30;64736;50.462;4.850;2023-02-12T09:36:07;7.81;83.39
76040;SHT30;64736;50.462;4.850;2023-02-12T09:38:33;7.30;83.13
76040;SHT30;64736;50.462;4.850;2023-02-12T09:46:14;7.50;84.31
76040;SHT30;64736;50.462;4.850;2023-02-12T09:49:30;7.27;83.68
76040;SHT30;64736;50.462;4.850;2023-02-12T09:51:35;7.40;83.35
76040;SHT30;64736;50.462;4.850;2023-02-12T09:54:06;7.31;83.82
76040;SHT30;64736;50.462;4.850;2023-02-12T09:56:37;7.34;84.01
76040;SHT30;64736;50.462;4.850;2023-02-12T09:59:07;7.31;84.04
76040;SHT30;64736;50.462;4.850;2023-02-12T10:01:34;7.42;83.54
76040;SHT30;64736;50.462;4.850;2023-02-12T10:04:01;7.42;83.72
76040;SHT30;64736;50.462;4.850;2023-02-12T10:06:46;7.44;83.29
76040;SHT30;64736;50.462;4.850;2023-02-12T10:12:37;7.38;83.56
76040;SHT30;64736;50.462;4.850;2023-02-12T10:27:24;7.74;80.94
76040;SHT30;64736;50.462;4.850;2023-02-12T10:29:53;7.63;81.80
76040;SHT30;64736;50.462;4.850;2023-02-12T10:32:33;7.61;81.74
76040;SHT30;64736;50.462;4.850;2023-02-12T10:35:00;7.72;81.15
76040;SHT30;64736;50.462;4.850;2023-02-12T10:37:42;7.54;81.44
76040;SHT30;64736;50.462;4.850;2023-02-12T10:40:23;7.71;81.07
76040;SHT30;64736;50.462;4.850;2023-02-12T10:42:52;7.78;80.49
76040;SHT30;64736;50.462;4.850;2023-02-12T10:45:21;7.72;80.74
76040;SHT30;64736;50.462;4.850;2023-02-12T10:48:00;7.64;81.02
76040;SHT30;64736;50.462;4.850;2023-02-12T10:50:39;7.67;81.57
76040;SHT30;64736;50.462;4.850;2023-02-12T10:53:15;7.75;80.92
76040;SHT30;64736;50.462;4.850;2023-02-12T10:55:42;7.65;80.76
76040;SHT30;64736;50.462;4.850;2023-02-12T10:58:21;7.64;80.86
76040;SHT30;64736;50.462;4.850;2023-02-12T11:00:57;7.67;81.01
76040;SHT30;64736;50.462;4.850;2023-02-12T11:03:31;7.74;80.85
76040;SHT30;64736;50.462;4.850;2023-02-12T11:06:19;7.71;80.99
76040;SHT30;64736;50.462;4.850;2023-02-12T11:08:46;7.77;80.81
76040;SHT30;64736;50.462;4.850;2023-02-12T11:14:05;7.79;79.96
76040;SHT30;64736;50.462;4.850;2023-02-12T11:16:42;7.91;79.40
76040;SHT30;64736;50.462;4.850;2023-02-12T11:19:30;7.92;79.33
76040;SHT30;64736;50.462;4.850;2023-02-12T11:22:09;7.89;79.04
76040;SHT30;64736;50.462;4.850;2023-02-12T11:24:39;7.82;78.70
76040;SHT30;64736;50.462;4.850;2023-02-12T11:29:41;8.14;79.05
76040;SHT30;64736;50.462;4.850;2023-02-12T11:32:19;7.85;79.20
76040;SHT30;64736;50.462;4.850;2023-02-12T11:35:09;7.88;79.46
76040;SHT30;64736;50.462;4.850;2023-02-12T11:37:42;7.88;78.88
76040;SHT30;64736;50.462;4.850;2023-02-12T11:40:21;7.93;77.90
76040;SHT30;64736;50.462;4.850;2023-02-12T11:42:52;8.14;77.52
76040;SHT30;64736;50.462;4.850;2023-02-12T11:45:21;8.07;77.60
76040;SHT30;64736;50.462;4.850;2023-02-12T11:47:50;8.06;77.63
76040;SHT30;64736;50.462;4.850;2023-02-12T11:50:26;8.09;78.13
76040;SHT30;64736;50.462;4.850;2023-02-12T11:52:56;8.06;78.02
76040;SHT30;64736;50.462;4.850;2023-02-12T11:55:30;8.20;78.19
76040;SHT30;64736;50.462;4.850;2023-02-12T12:00:54;8.13;77.43
76040;SHT30;64736;50.462;4.850;2023-02-12T12:06:20;8.10;77.98
76040;SHT30;64736;50.462;4.850;2023-02-12T12:09:06;8.19;77.34
76040;SHT30;64736;50.462;4.850;2023-02-12T12:12:01;8.20;77.67
76040;SHT30;64736;50.462;4.850;2023-02-12T12:14:41;8.19;77.14
76040;SHT30;64736;50.462;4.850;2023-02-12T12:17:45;8.20;76.49
76040;SHT30;64736;50.462;4.850;2023-02-12T12:20:35;8.28;75.88
76040;SHT30;64736;50.462;4.850;2023-02-12T12:23:13;8.19;74.58
76040;SHT30;64736;50.462;4.850;2023-02-12T12:25:47;8.43;74.76
76040;SHT30;64736;50.462;4.850;2023-02-12T12:31:40;8.41;74.36
76040;SHT30;64736;50.462;4.850;2023-02-12T12:34:12;8.36;75.45
76040;SHT30;64736;50.462;4.850;2023-02-12T12:53:46;8.41;75.64
76040;SHT30;64736;50.462;4.850;2023-02-12T13:12:57;8.49;74.63
76040;SHT30;64736;50.462;4.850;2023-02-12T13:21:12;8.40;75.47
76040;SHT30;64736;50.462;4.850;2023-02-12T13:23:51;8.36;75.76
76040;SHT30;64736;50.462;4.850;2023-02-12T13:26:47;8.43;75.56
76040;SHT30;64736;50.462;4.850;2023-02-12T13:29:23;8.60;75.17
76040;SHT30;64736;50.462;4.850;2023-02-12T13:32:43;8.64;74.93
76040;SHT30;64736;50.462;4.850;2023-02-12T13:34:43;8.78;74.86
76040;SHT30;64736;50.462;4.850;2023-02-12T13:37:17;8.82;74.13
76040;SHT30;64736;50.462;4.850;2023-02-12T13:39:47;8.75;74.37
76040;SHT30;64736;50.462;4.850;2023-02-12T13:47:46;8.59;74.65
76040;SHT30;64736;50.462;4.850;2023-02-12T13:50:50;8.61;74.62
76040;SHT30;64736;50.462;4.850;2023-02-12T13:58:53;8.65;74.78
76040;SHT30;64736;50.462;4.850;2023-02-12T14:01:36;8.54;74.95
76040;SHT30;64736;50.462;4.850;2023-02-12T14:04:24;8.70;75.22
76040;SHT30;64736;50.462;4.850;2023-02-12T14:09:42;9.07;73.60
76040;SHT30;64736;50.462;4.850;2023-02-12T14:12:10;8.68;74.33
76040;SHT30;64736;50.462;4.850;2023-02-12T14:14:46;8.56;74.64
76040;SHT30;64736;50.462;4.850;2023-02-12T14:20:39;8.59;74.38
76040;SHT30;64736;50.462;4.850;2023-02-12T14:27:52;8.77;74.31
76040;SHT30;64736;50.462;4.850;2023-02-12T14:30:26;8.93;74.27
76040;SHT30;64736;50.462;4.850;2023-02-12T14:32:59;8.65;74.43
76040;SHT30;64736;50.462;4.850;2023-02-12T14:41:23;8.65;74.68
76040;SHT30;64736;50.462;4.850;2023-02-12T14:46:47;8.61;74.48
76040;SHT30;64736;50.462;4.850;2023-02-12T14:49:23;8.67;74.80
76040;SHT30;64736;50.462;4.850;2023-02-12T14:54:51;8.59;74.66
76040;SHT30;64736;50.462;4.850;2023-02-12T14:57:39;8.57;74.81
76040;SHT30;64736;50.462;4.850;2023-02-12T15:00:32;8.67;74.74
76040;SHT30;64736;50.462;4.850;2023-02-12T15:03:15;8.71;74.81
76040;SHT30;64736;50.462;4.850;2023-02-12T15:09:09;8.67;74.73
76040;SHT30;64736;50.462;4.850;2023-02-12T15:11:44;8.61;74.62
76040;SHT30;64736;50.462;4.850;2023-02-12T15:14:23;8.70;74.53
76040;SHT30;64736;50.462;4.850;2023-02-12T15:17:16;8.63;74.92
76040;SHT30;64736;50.462;4.850;2023-02-12T15:22:38;8.59;76.03
76040;SHT30;64736;50.462;4.850;2023-02-12T15:25:27;8.54;76.77
76040;SHT30;64736;50.462;4.850;2023-02-12T15:28:20;8.44;77.69
76040;SHT30;64736;50.462;4.850;2023-02-12T15:30:49;8.44;78.31
76040;SHT30;64736;50.462;4.850;2023-02-12T15:33:26;8.37;78.45
76040;SHT30;64736;50.462;4.850;2023-02-12T15:35:52;8.50;78.66
76040;SHT30;64736;50.462;4.850;2023-02-12T15:38:36;8.34;79.24
76040;SHT30;64736;50.462;4.850;2023-02-12T15:41:03;8.28;79.75
76040;SHT30;64736;50.462;4.850;2023-02-12T15:43:31;8.37;79.81
76040;SHT30;64736;50.462;4.850;2023-02-12T15:46:01;8.32;80.19
76040;SHT30;64736;50.462;4.850;2023-02-12T15:48:32;8.28;80.68
76040;SHT30;64736;50.462;4.850;2023-02-12T15:53:29;8.19;81.33
76040;SHT30;64736;50.462;4.850;2023-02-12T15:55:55;8.30;81.00
76040;SHT30;64736;50.462;4.850;2023-02-12T15:58:53;8.22;81.08
76040;SHT30;64736;50.462;4.850;2023-02-12T16:01:25;8.25;81.17
76040;SHT30;64736;50.462;4.850;2023-02-12T16:03:53;8.23;81.20
76040;SHT30;64736;50.462;4.850;2023-02-12T16:06:21;8.20;81.03
76040;SHT30;64736;50.462;4.850;2023-02-12T16:09:02;8.22;81.22
76040;SHT30;64736;50.462;4.850;2023-02-12T16:11:29;8.20;81.35
76040;SHT30;64736;50.462;4.850;2023-02-12T16:13:59;8.17;81.41
76040;SHT30;64736;50.462;4.850;2023-02-12T16:16:28;8.16;81.47
76040;SHT30;64736;50.462;4.850;2023-02-12T16:19:23;8.14;81.11
76040;SHT30;64736;50.462;4.850;2023-02-12T16:21:53;8.07;81.36
76040;SHT30;64736;50.462;4.850;2023-02-12T16:26:56;8.05;81.13
76040;SHT30;64736;50.462;4.850;2023-02-12T16:29:22;8.01;81.26
76040;SHT30;64736;50.462;4.850;2023-02-12T16:37:53;7.99;80.88
76040;SHT30;64736;50.462;4.850;2023-02-12T16:40:34;7.98;81.10
76040;SHT30;64736;50.462;4.850;2023-02-12T16:43:03;8.01;81.06
76040;SHT30;64736;50.462;4.850;2023-02-12T16:45:34;7.95;81.10
76040;SHT30;64736;50.462;4.850;2023-02-12T16:48:13;8.01;81.28
76040;SHT30;64736;50.462;4.850;2023-02-12T16:50:49;8.02;81.37
76040;SHT30;64736;50.462;4.850;2023-02-12T16:55:59;7.96;81.73
76040;SHT30;64736;50.462;4.850;2023-02-12T16:58:25;7.93;81.79
76040;SHT30;64736;50.462;4.850;2023-02-12T17:00:52;7.98;81.87
76040;SHT30;64736;50.462;4.850;2023-02-12T17:03:19;7.89;82.02
76040;SHT30;64736;50.462;4.850;2023-02-12T17:05:45;7.88;82.08
76040;SHT30;64736;50.462;4.850;2023-02-12T17:08:16;7.86;82.17
76040;SHT30;64736;50.462;4.850;2023-02-12T17:10:42;7.91;82.00
76040;SHT30;64736;50.462;4.850;2023-02-12T17:13:12;7.91;81.96
76040;SHT30;64736;50.462;4.850;2023-02-12T17:15:57;7.86;82.11
76040;SHT30;64736;50.462;4.850;2023-02-12T17:18:24;7.84;82.16
76040;SHT30;64736;50.462;4.850;2023-02-12T17:20:55;7.81;82.22
76040;SHT30;64736;50.462;4.850;2023-02-12T17:23:21;7.86;82.09
76040;SHT30;64736;50.462;4.850;2023-02-12T17:25:47;7.85;82.13
76040;SHT30;64736;50.462;4.850;2023-02-12T17:28:13;7.82;82.13
76040;SHT30;64736;50.462;4.850;2023-02-12T17:30:39;7.86;82.07
76040;SHT30;64736;50.462;4.850;2023-02-12T17:33:04;7.84;82.20
76040;SHT30;64736;50.462;4.850;2023-02-12T17:35:30;7.81;82.23
76040;SHT30;64736;50.462;4.850;2023-02-12T17:37:55;7.91;82.21
76040;SHT30;64736;50.462;4.850;2023-02-12T17:40:21;7.91;81.98
76040;SHT30;64736;50.462;4.850;2023-02-12T17:42:48;7.82;82.16
76040;SHT30;64736;50.462;4.850;2023-02-12T17:45:13;7.79;82.26
76040;SHT30;64736;50.462;4.850;2023-02-12T17:47:39;7.84;82.17
76040;SHT30;64736;50.462;4.850;2023-02-12T17:50:13;7.84;82.26
76040;SHT30;64736;50.462;4.850;2023-02-12T17:52:39;7.78;82.15
76040;SHT30;64736;50.462;4.850;2023-02-12T17:55:05;7.75;82.39
76040;SHT30;64736;50.462;4.850;2023-02-12T17:57:31;7.78;82.35
76040;SHT30;64736;50.462;4.850;2023-02-12T17:59:57;7.86;82.04
76040;SHT30;64736;50.462;4.850;2023-02-12T18:02:23;7.77;82.42
76040;SHT30;64736;50.462;4.850;2023-02-12T18:04:49;7.89;82.33
76040;SHT30;64736;50.462;4.850;2023-02-12T18:07:14;7.77;82.60
76040;SHT30;64736;50.462;4.850;2023-02-12T18:09:40;7.79;82.73
76040;SHT30;64736;50.462;4.850;2023-02-12T18:12:06;7.74;82.49
76040;SHT30;64736;50.462;4.850;2023-02-12T18:14:32;7.75;82.49
76040;SHT30;64736;50.462;4.850;2023-02-12T18:16:58;7.72;82.46
76040;SHT30;64736;50.462;4.850;2023-02-12T18:19:25;7.64;83.00
76040;SHT30;64736;50.462;4.850;2023-02-12T18:21:51;7.72;82.48
76040;SHT30;64736;50.462;4.850;2023-02-12T18:24:17;7.70;82.57
76040;SHT30;64736;50.462;4.850;2023-02-12T18:26:42;7.88;82.56
76040;SHT30;64736;50.462;4.850;2023-02-12T18:29:08;7.77;82.53
76040;SHT30;64736;50.462;4.850;2023-02-12T18:31:34;7.68;82.67
76040;SHT30;64736;50.462;4.850;2023-02-12T18:34:01;7.63;83.03
76040;SHT30;64736;50.462;4.850;2023-02-12T18:36:28;7.68;82.66
76040;SHT30;64736;50.462;4.850;2023-02-12T18:38:54;7.63;82.92
76040;SHT30;64736;50.462;4.850;2023-02-12T18:41:24;7.55;83.20
76040;SHT30;64736;50.462;4.850;2023-02-12T18:43:50;7.91;82.57
76040;SHT30;64736;50.462;4.850;2023-02-12T18:46:22;7.74;82.94
76040;SHT30;64736;50.462;4.850;2023-02-12T18:48:49;7.85;82.61
76040;SHT30;64736;50.462;4.850;2023-02-12T18:51:20;7.74;82.18
76040;SHT30;64736;50.462;4.850;2023-02-12T18:53:47;7.75;81.93
76040;SHT30;64736;50.462;4.850;2023-02-12T18:56:18;7.48;82.26
76040;SHT30;64736;50.462;4.850;2023-02-12T18:58:45;7.43;82.50
76040;SHT30;64736;50.462;4.850;2023-02-12T19:01:15;7.24;82.28